sensor_id;sensor_type;location;lat;lon;timestamp;P1;durP1;ratioP1;P2;durP2;ratioP2
2119;SDS011;1066;52.540;13.420;2022-12-07T00:00:48;13.40;;;8.87;;
2119;SDS011;1066;52.540;13.420;2022-12-07T00:03:14;11.90;;;7.83;;
2119;SDS011;1066;52.540;13.420;2022-12-07T00:05:39;10.00;;;7.87;;
2119;SDS011;1066;52.540;13.420;2022-12-07T00:08:04;11.17;;;8.67;;
2119;SDS011;1066;52.540;13.420;2022-12-07T00:10:30;10.43;;;7.20;;
2119;SDS011;1066;52.540;13.420;2022-12-07T00:12:55;14.97;;;7.13;;
2119;SDS011;1066;52.540;13.420;2022-12-07T00:15:20;11.23;;;8.90;;
2119;SDS011;1066;52.540;13.420;2022-12-07T00:17:46;10.63;;;7.97;;
2119;SDS011;1066;52.540;13.420;2022-12-07T00:20:11;10.80;;;7.77;;
2119;SDS011;1066;52.540;13.420;2022-12-07T00:22:36;11.13;;;7.97;;
2119;SDS011;1066;52.540;13.420;2022-12-07T00:25:02;11.40;;;8.00;;
2119;SDS011;1066;52.540;13.420;2022-12-07T00:27:27;9.93;;;8.03;;
2119;SDS011;1066;52.540;13.420;2022-12-07T00:29:52;12.10;;;8.50;;
2119;SDS011;1066;52.540;13.420;2022-12-07T00:32:18;11.40;;;8.27;;
2119;SDS011;1066;52.540;13.420;2022-12-07T00:34:43;11.97;;;7.97;;
2119;SDS011;1066;52.540;13.420;2022-12-07T00:37:08;11.80;;;8.33;;
2119;SDS011;1066;52.540;13.420;2022-12-07T00:39:34;10.00;;;8.20;;
2119;SDS011;1066;52.540;13.420;2022-12-07T00:41:59;12.83;;;8.17;;
2119;SDS011;1066;52.540;13.420;2022-12-07T00:44:25;10.50;;;7.97;;
2119;SDS011;1066;52.540;13.420;2022-12-07T00:46:50;11.10;;;7.77;;
2119;SDS011;1066;52.540;13.420;2022-12-07T00:49:16;12.43;;;7.97;;
2119;SDS011;1066;52.540;13.420;2022-12-07T00:51:41;11.60;;;8.27;;
2119;SDS011;1066;52.540;13.420;2022-12-07T00:54:07;11.20;;;8.03;;
2119;SDS011;1066;52.540;13.420;2022-12-07T00:56:32;10.40;;;7.73;;
2119;SDS011;1066;52.540;13.420;2022-12-07T00:58:59;10.00;;;6.87;;
2119;SDS011;1066;52.540;13.420;2022-12-07T01:01:26;11.00;;;7.53;;
2119;SDS011;1066;52.540;13.420;2022-12-07T01:03:52;10.40;;;7.70;;
2119;SDS011;1066;52.540;13.420;2022-12-07T01:06:18;8.43;;;6.57;;
2119;SDS011;1066;52.540;13.420;2022-12-07T01:08:44;9.00;;;6.87;;
2119;SDS011;1066;52.540;13.420;2022-12-07T01:11:11;9.63;;;7.33;;
2119;SDS011;1066;52.540;13.420;2022-12-07T01:13:39;8.73;;;7.60;;
2119;SDS011;1066;52.540;13.420;2022-12-07T01:16:05;9.30;;;7.77;;
2119;SDS011;1066;52.540;13.420;2022-12-07T01:18:32;10.50;;;8.13;;
2119;SDS011;1066;52.540;13.420;2022-12-07T01:23:31;9.70;;;6.93;;
2119;SDS011;1066;52.540;13.420;2022-12-07T01:26:00;8.40;;;6.70;;
2119;SDS011;1066;52.540;13.420;2022-12-07T01:28:27;7.90;;;7.07;;
2119;SDS011;1066;52.540;13.420;2022-12-07T01:30:59;9.53;;;7.20;;
2119;SDS011;1066;52.540;13.420;2022-12-07T01:33:31;7.23;;;5.60;;
2119;SDS011;1066;52.540;13.420;2022-12-07T01:36:05;7.03;;;6.30;;
2119;SDS011;1066;52.540;13.420;2022-12-07T01:38:33;7.90;;;6.33;;
2119;SDS011;1066;52.540;13.420;2022-12-07T01:40:59;7.83;;;6.73;;
2119;SDS011;1066;52.540;13.420;2022-12-07T01:43:25;7.50;;;6.67;;
2119;SDS011;1066;52.540;13.420;2022-12-07T01:45:52;9.27;;;6.70;;
2119;SDS011;1066;52.540;13.420;2022-12-07T01:48:19;9.00;;;7.20;;
2119;SDS011;1066;52.540;13.420;2022-12-07T01:50:51;10.53;;;7.80;;
2119;SDS011;1066;52.540;13.420;2022-12-07T01:53:17;8.40;;;6.40;;
2119;SDS011;1066;52.540;13.420;2022-12-07T01:55:44;10.80;;;7.30;;
2119;SDS011;1066;52.540;13.420;2022-12-07T01:58:11;8.40;;;6.40;;
2119;SDS011;1066;52.540;13.420;2022-12-07T02:00:37;9.37;;;6.23;;
2119;SDS011;1066;52.540;13.420;2022-12-07T02:05:29;6.90;;;5.90;;
2119;SDS011;1066;52.540;13.420;2022-12-07T02:07:55;8.23;;;5.67;;
2119;SDS011;1066;52.540;13.420;2022-12-07T02:10:23;7.87;;;6.27;;
2119;SDS011;1066;52.540;13.420;2022-12-07T02:12:51;6.17;;;5.47;;
2119;SDS011;1066;52.540;13.420;2022-12-07T02:15:21;5.67;;;4.90;;
2119;SDS011;1066;52.540;13.420;2022-12-07T02:18:05;7.13;;;4.67;;
2119;SDS011;1066;52.540;13.420;2022-12-07T02:20:37;8.27;;;5.60;;
2119;SDS011;1066;52.540;13.420;2022-12-07T02:31:19;5.20;;;4.43;;
2119;SDS011;1066;52.540;13.420;2022-12-07T02:33:52;4.93;;;4.43;;
2119;SDS011;1066;52.540;13.420;2022-12-07T02:36:28;5.90;;;5.00;;
2119;SDS011;1066;52.540;13.420;2022-12-07T02:38:57;5.77;;;5.07;;
2119;SDS011;1066;52.540;13.420;2022-12-07T02:43:59;8.37;;;5.50;;
2119;SDS011;1066;52.540;13.420;2022-12-07T02:46:30;6.50;;;5.17;;
2119;SDS011;1066;52.540;13.420;2022-12-07T02:48:58;6.17;;;5.00;;
2119;SDS011;1066;52.540;13.420;2022-12-07T02:51:29;7.40;;;6.00;;
2119;SDS011;1066;52.540;13.420;2022-12-07T02:53:58;7.60;;;6.03;;
2119;SDS011;1066;52.540;13.420;2022-12-07T02:59:15;7.43;;;5.40;;
2119;SDS011;1066;52.540;13.420;2022-12-07T03:07:39;5.97;;;4.57;;
2119;SDS011;1066;52.540;13.420;2022-12-07T03:10:22;8.00;;;5.00;;
2119;SDS011;1066;52.540;13.420;2022-12-07T03:12:57;7.17;;;5.60;;
2119;SDS011;1066;52.540;13.420;2022-12-07T03:15:31;7.23;;;5.87;;
2119;SDS011;1066;52.540;13.420;2022-12-07T03:17:57;7.97;;;5.93;;
2119;SDS011;1066;52.540;13.420;2022-12-07T03:20:24;7.90;;;6.03;;
2119;SDS011;1066;52.540;13.420;2022-12-07T03:22:51;10.17;;;6.50;;
2119;SDS011;1066;52.540;13.420;2022-12-07T03:25:18;8.50;;;6.20;;
2119;SDS011;1066;52.540;13.420;2022-12-07T03:30:12;7.80;;;6.67;;
2119;SDS011;1066;52.540;13.420;2022-12-07T03:32:45;8.80;;;6.83;;
2119;SDS011;1066;52.540;13.420;2022-12-07T03:35:23;11.87;;;7.40;;
2119;SDS011;1066;52.540;13.420;2022-12-07T03:37:54;8.03;;;6.90;;
2119;SDS011;1066;52.540;13.420;2022-12-07T03:43:05;10.10;;;7.47;;
2119;SDS011;1066;52.540;13.420;2022-12-07T03:45:40;9.33;;;7.00;;
2119;SDS011;1066;52.540;13.420;2022-12-07T03:53:34;10.03;;;7.20;;
2119;SDS011;1066;52.540;13.420;2022-12-07T03:56:03;11.10;;;8.07;;
2119;SDS011;1066;52.540;13.420;2022-12-07T03:58:28;9.20;;;8.13;;
2119;SDS011;1066;52.540;13.420;2022-12-07T04:00:55;7.80;;;6.83;;
2119;SDS011;1066;52.540;13.420;2022-12-07T04:03:20;9.80;;;7.70;;
2119;SDS011;1066;52.540;13.420;2022-12-07T04:05:45;13.90;;;8.63;;
2119;SDS011;1066;52.540;13.420;2022-12-07T04:08:11;11.20;;;7.23;;
2119;SDS011;1066;52.540;13.420;2022-12-07T04:10:36;10.20;;;7.37;;
2119;SDS011;1066;52.540;13.420;2022-12-07T04:13:01;12.20;;;8.23;;
2119;SDS011;1066;52.540;13.420;2022-12-07T04:15:27;11.03;;;9.40;;
2119;SDS011;1066;52.540;13.420;2022-12-07T04:17:52;10.50;;;7.83;;
2119;SDS011;1066;52.540;13.420;2022-12-07T04:20:18;11.30;;;8.90;;
2119;SDS011;1066;52.540;13.420;2022-12-07T04:22:44;10.90;;;8.80;;
2119;SDS011;1066;52.540;13.420;2022-12-07T04:25:09;13.50;;;10.20;;
2119;SDS011;1066;52.540;13.420;2022-12-07T04:27:34;12.60;;;8.10;;
2119;SDS011;1066;52.540;13.420;2022-12-07T04:30:00;13.60;;;8.87;;
2119;SDS011;1066;52.540;13.420;2022-12-07T04:32:25;12.30;;;9.03;;
2119;SDS011;1066;52.540;13.420;2022-12-07T04:34:50;12.80;;;9.83;;
2119;SDS011;1066;52.540;13.420;2022-12-07T04:37:16;14.20;;;9.03;;
2119;SDS011;1066;52.540;13.420;2022-12-07T04:39:42;13.23;;;9.93;;
2119;SDS011;1066;52.540;13.420;2022-12-07T04:42:09;9.30;;;7.47;;
2119;SDS011;1066;52.540;13.420;2022-12-07T04:44:35;11.97;;;8.83;;
2119;SDS011;1066;52.540;13.420;2022-12-07T04:47:01;11.07;;;9.20;;
2119;SDS011;1066;52.540;13.420;2022-12-07T04:49:26;14.30;;;9.43;;
2119;SDS011;1066;52.540;13.420;2022-12-07T04:51:51;15.10;;;9.77;;
2119;SDS011;1066;52.540;13.420;2022-12-07T04:54:17;11.23;;;9.37;;
2119;SDS011;1066;52.540;13.420;2022-12-07T04:56:43;12.90;;;10.33;;
2119;SDS011;1066;52.540;13.420;2022-12-07T04:59:09;16.40;;;11.10;;
2119;SDS011;1066;52.540;13.420;2022-12-07T05:01:36;12.70;;;9.20;;
2119;SDS011;1066;52.540;13.420;2022-12-07T05:04:01;10.87;;;9.03;;
2119;SDS011;1066;52.540;13.420;2022-12-07T05:06:27;17.17;;;11.20;;
2119;SDS011;1066;52.540;13.420;2022-12-07T05:08:52;13.30;;;11.03;;
2119;SDS011;1066;52.540;13.420;2022-12-07T05:11:17;15.73;;;11.10;;
2119;SDS011;1066;52.540;13.420;2022-12-07T05:14:02;15.40;;;11.90;;
2119;SDS011;1066;52.540;13.420;2022-12-07T05:16:28;14.07;;;11.80;;
2119;SDS011;1066;52.540;13.420;2022-12-07T05:18:54;15.43;;;11.63;;
2119;SDS011;1066;52.540;13.420;2022-12-07T05:21:19;14.67;;;11.63;;
2119;SDS011;1066;52.540;13.420;2022-12-07T05:23:45;16.57;;;11.50;;
2119;SDS011;1066;52.540;13.420;2022-12-07T05:26:10;19.33;;;13.07;;
2119;SDS011;1066;52.540;13.420;2022-12-07T05:28:35;17.30;;;11.80;;
2119;SDS011;1066;52.540;13.420;2022-12-07T05:31:01;13.77;;;10.73;;
2119;SDS011;1066;52.540;13.420;2022-12-07T05:33:26;16.40;;;12.20;;
2119;SDS011;1066;52.540;13.420;2022-12-07T05:35:51;18.40;;;12.70;;
2119;SDS011;1066;52.540;13.420;2022-12-07T05:38:17;16.47;;;12.20;;
2119;SDS011;1066;52.540;13.420;2022-12-07T05:40:42;17.90;;;12.60;;
2119;SDS011;1066;52.540;13.420;2022-12-07T05:43:07;16.00;;;11.83;;
2119;SDS011;1066;52.540;13.420;2022-12-07T05:45:33;18.80;;;13.03;;
2119;SDS011;1066;52.540;13.420;2022-12-07T05:47:58;16.77;;;12.10;;
2119;SDS011;1066;52.540;13.420;2022-12-07T05:50:23;23.27;;;14.00;;
2119;SDS011;1066;52.540;13.420;2022-12-07T05:52:49;21.13;;;14.00;;
2119;SDS011;1066;52.540;13.420;2022-12-07T05:55:14;21.50;;;13.90;;
2119;SDS011;1066;52.540;13.420;2022-12-07T05:57:40;19.97;;;13.23;;
2119;SDS011;1066;52.540;13.420;2022-12-07T06:00:25;23.10;;;15.03;;
2119;SDS011;1066;52.540;13.420;2022-12-07T06:02:50;20.27;;;13.40;;
2119;SDS011;1066;52.540;13.420;2022-12-07T06:05:16;21.47;;;14.00;;
2119;SDS011;1066;52.540;13.420;2022-12-07T06:07:41;18.87;;;13.40;;
2119;SDS011;1066;52.540;13.420;2022-12-07T06:10:06;18.60;;;14.10;;
2119;SDS011;1066;52.540;13.420;2022-12-07T06:12:32;17.80;;;12.90;;
2119;SDS011;1066;52.540;13.420;2022-12-07T06:15:00;20.47;;;14.90;;
2119;SDS011;1066;52.540;13.420;2022-12-07T06:17:26;20.23;;;13.50;;
2119;SDS011;1066;52.540;13.420;2022-12-07T06:19:51;19.13;;;14.13;;
2119;SDS011;1066;52.540;13.420;2022-12-07T06:22:16;22.20;;;15.10;;
2119;SDS011;1066;52.540;13.420;2022-12-07T06:24:42;22.80;;;15.13;;
2119;SDS011;1066;52.540;13.420;2022-12-07T06:27:09;21.50;;;14.10;;
2119;SDS011;1066;52.540;13.420;2022-12-07T06:29:34;23.70;;;14.23;;
2119;SDS011;1066;52.540;13.420;2022-12-07T06:32:00;19.10;;;13.80;;
2119;SDS011;1066;52.540;13.420;2022-12-07T06:34:26;17.37;;;13.10;;
2119;SDS011;1066;52.540;13.420;2022-12-07T06:36:51;20.50;;;14.13;;
2119;SDS011;1066;52.540;13.420;2022-12-07T06:39:19;22.07;;;13.30;;
2119;SDS011;1066;52.540;13.420;2022-12-07T06:41:44;20.10;;;13.97;;
2119;SDS011;1066;52.540;13.420;2022-12-07T06:44:10;30.43;;;15.00;;
2119;SDS011;1066;52.540;13.420;2022-12-07T06:46:35;23.27;;;15.03;;
2119;SDS011;1066;52.540;13.420;2022-12-07T06:49:01;23.27;;;13.87;;
2119;SDS011;1066;52.540;13.420;2022-12-07T06:51:27;26.23;;;17.00;;
2119;SDS011;1066;52.540;13.420;2022-12-07T06:53:52;22.87;;;14.70;;
2119;SDS011;1066;52.540;13.420;2022-12-07T06:56:17;20.17;;;14.90;;
2119;SDS011;1066;52.540;13.420;2022-12-07T06:58:43;21.93;;;15.70;;
2119;SDS011;1066;52.540;13.420;2022-12-07T07:01:12;25.00;;;14.83;;
2119;SDS011;1066;52.540;13.420;2022-12-07T07:03:38;30.33;;;16.33;;
2119;SDS011;1066;52.540;13.420;2022-12-07T07:06:04;28.50;;;18.10;;
2119;SDS011;1066;52.540;13.420;2022-12-07T07:08:30;22.73;;;14.73;;
2119;SDS011;1066;52.540;13.420;2022-12-07T07:10:55;27.13;;;17.67;;
2119;SDS011;1066;52.540;13.420;2022-12-07T07:13:21;29.37;;;16.53;;
2119;SDS011;1066;52.540;13.420;2022-12-07T07:15:46;23.77;;;16.13;;
2119;SDS011;1066;52.540;13.420;2022-12-07T07:18:11;24.47;;;15.90;;
2119;SDS011;1066;52.540;13.420;2022-12-07T07:20:37;24.77;;;17.80;;
2119;SDS011;1066;52.540;13.420;2022-12-07T07:23:02;22.10;;;15.87;;
2119;SDS011;1066;52.540;13.420;2022-12-07T07:25:28;24.30;;;16.70;;
2119;SDS011;1066;52.540;13.420;2022-12-07T07:27:53;25.00;;;15.50;;
2119;SDS011;1066;52.540;13.420;2022-12-07T07:30:18;22.17;;;15.30;;
2119;SDS011;1066;52.540;13.420;2022-12-07T07:32:44;21.33;;;16.37;;
2119;SDS011;1066;52.540;13.420;2022-12-07T07:35:09;29.97;;;16.83;;
2119;SDS011;1066;52.540;13.420;2022-12-07T07:37:34;24.03;;;16.27;;
2119;SDS011;1066;52.540;13.420;2022-12-07T07:40:00;24.00;;;15.60;;
2119;SDS011;1066;52.540;13.420;2022-12-07T07:42:25;23.97;;;14.97;;
2119;SDS011;1066;52.540;13.420;2022-12-07T07:44:50;21.57;;;15.53;;
2119;SDS011;1066;52.540;13.420;2022-12-07T07:47:16;22.20;;;15.40;;
2119;SDS011;1066;52.540;13.420;2022-12-07T07:49:41;22.77;;;14.70;;
2119;SDS011;1066;52.540;13.420;2022-12-07T07:52:06;20.67;;;14.43;;
2119;SDS011;1066;52.540;13.420;2022-12-07T07:54:32;19.03;;;12.33;;
2119;SDS011;1066;52.540;13.420;2022-12-07T07:56:57;16.03;;;12.23;;
2119;SDS011;1066;52.540;13.420;2022-12-07T07:59:22;17.50;;;11.67;;
2119;SDS011;1066;52.540;13.420;2022-12-07T08:01:48;14.33;;;9.83;;
2119;SDS011;1066;52.540;13.420;2022-12-07T08:04:13;15.97;;;10.23;;
2119;SDS011;1066;52.540;13.420;2022-12-07T08:06:39;14.43;;;9.40;;
2119;SDS011;1066;52.540;13.420;2022-12-07T08:09:04;15.83;;;11.50;;
2119;SDS011;1066;52.540;13.420;2022-12-07T08:11:31;15.10;;;10.10;;
2119;SDS011;1066;52.540;13.420;2022-12-07T08:13:56;12.30;;;9.20;;
2119;SDS011;1066;52.540;13.420;2022-12-07T08:16:22;11.40;;;9.30;;
2119;SDS011;1066;52.540;13.420;2022-12-07T08:18:47;12.60;;;8.63;;
2119;SDS011;1066;52.540;13.420;2022-12-07T08:21:13;10.37;;;7.80;;
2119;SDS011;1066;52.540;13.420;2022-12-07T08:23:39;9.73;;;7.40;;
2119;SDS011;1066;52.540;13.420;2022-12-07T08:26:05;10.00;;;6.83;;
2119;SDS011;1066;52.540;13.420;2022-12-07T08:28:32;8.50;;;7.37;;
2119;SDS011;1066;52.540;13.420;2022-12-07T08:31:01;9.43;;;7.87;;
2119;SDS011;1066;52.540;13.420;2022-12-07T08:33:27;7.60;;;5.90;;
2119;SDS011;1066;52.540;13.420;2022-12-07T08:35:53;9.23;;;6.37;;
2119;SDS011;1066;52.540;13.420;2022-12-07T08:38:18;7.60;;;6.77;;
2119;SDS011;1066;52.540;13.420;2022-12-07T08:40:44;7.23;;;5.80;;
2119;SDS011;1066;52.540;13.420;2022-12-07T08:43:09;7.07;;;5.23;;
2119;SDS011;1066;52.540;13.420;2022-12-07T08:45:34;7.23;;;5.60;;
2119;SDS011;1066;52.540;13.420;2022-12-07T08:48:10;5.90;;;5.10;;
2119;SDS011;1066;52.540;13.420;2022-12-07T08:50:37;6.97;;;4.87;;
2119;SDS011;1066;52.540;13.420;2022-12-07T08:53:03;5.40;;;4.13;;
2119;SDS011;1066;52.540;13.420;2022-12-07T08:55:29;7.67;;;5.20;;
2119;SDS011;1066;52.540;13.420;2022-12-07T08:57:54;6.13;;;4.53;;
2119;SDS011;1066;52.540;13.420;2022-12-07T09:00:20;5.00;;;3.60;;
2119;SDS011;1066;52.540;13.420;2022-12-07T09:02:45;4.07;;;3.60;;
2119;SDS011;1066;52.540;13.420;2022-12-07T09:05:12;4.80;;;3.17;;
2119;SDS011;1066;52.540;13.420;2022-12-07T09:07:39;4.13;;;3.73;;
2119;SDS011;1066;52.540;13.420;2022-12-07T09:10:06;3.73;;;3.33;;
2119;SDS011;1066;52.540;13.420;2022-12-07T09:12:32;4.33;;;3.40;;
2119;SDS011;1066;52.540;13.420;2022-12-07T09:14:57;5.20;;;3.90;;
2119;SDS011;1066;52.540;13.420;2022-12-07T09:17:22;3.33;;;2.60;;
2119;SDS011;1066;52.540;13.420;2022-12-07T09:19:48;3.23;;;2.53;;
2119;SDS011;1066;52.540;13.420;2022-12-07T09:22:13;3.00;;;2.70;;
2119;SDS011;1066;52.540;13.420;2022-12-07T09:24:39;3.47;;;3.07;;
2119;SDS011;1066;52.540;13.420;2022-12-07T09:27:05;3.40;;;2.73;;
2119;SDS011;1066;52.540;13.420;2022-12-07T09:29:32;6.87;;;3.07;;
2119;SDS011;1066;52.540;13.420;2022-12-07T09:32:01;2.50;;;2.20;;
2119;SDS011;1066;52.540;13.420;2022-12-07T09:34:26;2.40;;;2.20;;
2119;SDS011;1066;52.540;13.420;2022-12-07T09:36:51;2.60;;;2.40;;
2119;SDS011;1066;52.540;13.420;2022-12-07T09:39:17;3.83;;;3.20;;
2119;SDS011;1066;52.540;13.420;2022-12-07T09:41:43;6.33;;;3.20;;
2119;SDS011;1066;52.540;13.420;2022-12-07T09:44:11;3.30;;;3.00;;
2119;SDS011;1066;52.540;13.420;2022-12-07T09:46:39;4.37;;;2.63;;
2119;SDS011;1066;52.540;13.420;2022-12-07T09:49:08;3.57;;;2.50;;
2119;SDS011;1066;52.540;13.420;2022-12-07T09:51:41;3.67;;;2.70;;
2119;SDS011;1066;52.540;13.420;2022-12-07T09:54:07;5.63;;;3.13;;
2119;SDS011;1066;52.540;13.420;2022-12-07T09:56:34;3.37;;;3.07;;
2119;SDS011;1066;52.540;13.420;2022-12-07T09:59:00;2.63;;;2.43;;
2119;SDS011;1066;52.540;13.420;2022-12-07T10:01:27;3.00;;;2.70;;
2119;SDS011;1066;52.540;13.420;2022-12-07T10:03:55;3.40;;;2.30;;
2119;SDS011;1066;52.540;13.420;2022-12-07T10:06:24;3.43;;;2.50;;
2119;SDS011;1066;52.540;13.420;2022-12-07T10:08:49;3.30;;;2.67;;
2119;SDS011;1066;52.540;13.420;2022-12-07T10:11:15;3.07;;;2.77;;
2119;SDS011;1066;52.540;13.420;2022-12-07T10:13:45;2.17;;;2.00;;
2119;SDS011;1066;52.540;13.420;2022-12-07T10:16:27;3.13;;;2.87;;
2119;SDS011;1066;52.540;13.420;2022-12-07T10:19:17;3.20;;;2.90;;
2119;SDS011;1066;52.540;13.420;2022-12-07T10:24:35;2.90;;;2.40;;
2119;SDS011;1066;52.540;13.420;2022-12-07T10:27:04;2.63;;;2.13;;
2119;SDS011;1066;52.540;13.420;2022-12-07T10:29:31;3.57;;;2.60;;
2119;SDS011;1066;52.540;13.420;2022-12-07T10:32:03;4.30;;;2.43;;
2119;SDS011;1066;52.540;13.420;2022-12-07T10:34:38;2.37;;;2.17;;
2119;SDS011;1066;52.540;13.420;2022-12-07T10:39:49;4.03;;;2.07;;
2119;SDS011;1066;52.540;13.420;2022-12-07T10:42:18;3.30;;;3.00;;
2119;SDS011;1066;52.540;13.420;2022-12-07T10:44:44;2.20;;;2.00;;
2119;SDS011;1066;52.540;13.420;2022-12-07T10:49:53;3.67;;;2.93;;
2119;SDS011;1066;52.540;13.420;2022-12-07T10:55:16;5.00;;;3.07;;
2119;SDS011;1066;52.540;13.420;2022-12-07T11:00:35;3.77;;;2.90;;
2119;SDS011;1066;52.540;13.420;2022-12-07T11:03:16;5.97;;;3.13;;
2119;SDS011;1066;52.540;13.420;2022-12-07T11:05:53;5.60;;;3.10;;
2119;SDS011;1066;52.540;13.420;2022-12-07T11:11:34;3.40;;;3.10;;
2119;SDS011;1066;52.540;13.420;2022-12-07T11:14:05;6.13;;;4.50;;
2119;SDS011;1066;52.540;13.420;2022-12-07T11:16:47;3.93;;;3.57;;
2119;SDS011;1066;52.540;13.420;2022-12-07T11:22:14;8.13;;;3.20;;
2119;SDS011;1066;52.540;13.420;2022-12-07T11:27:45;5.10;;;3.00;;
2119;SDS011;1066;52.540;13.420;2022-12-07T11:33:01;3.93;;;3.33;;
2119;SDS011;1066;52.540;13.420;2022-12-07T11:38:37;3.90;;;3.60;;
2119;SDS011;1066;52.540;13.420;2022-12-07T11:41:15;6.23;;;3.67;;
2119;SDS011;1066;52.540;13.420;2022-12-07T11:52:15;4.73;;;4.07;;
2119;SDS011;1066;52.540;13.420;2022-12-07T11:54:43;6.30;;;4.63;;
2119;SDS011;1066;52.540;13.420;2022-12-07T11:57:22;5.30;;;4.40;;
2119;SDS011;1066;52.540;13.420;2022-12-07T11:59:56;5.37;;;4.97;;
2119;SDS011;1066;52.540;13.420;2022-12-07T12:02:28;5.37;;;4.87;;
2119;SDS011;1066;52.540;13.420;2022-12-07T12:05:20;5.40;;;4.40;;
2119;SDS011;1066;52.540;13.420;2022-12-07T12:07:46;4.83;;;3.50;;
2119;SDS011;1066;52.540;13.420;2022-12-07T12:21:12;7.67;;;3.70;;
2119;SDS011;1066;52.540;13.420;2022-12-07T12:26:17;7.50;;;4.23;;
2119;SDS011;1066;52.540;13.420;2022-12-07T12:33:52;8.10;;;4.00;;
2119;SDS011;1066;52.540;13.420;2022-12-07T12:36:24;5.80;;;3.70;;
2119;SDS011;1066;52.540;13.420;2022-12-07T12:46:46;6.63;;;3.50;;
2119;SDS011;1066;52.540;13.420;2022-12-07T12:51:46;8.10;;;3.53;;
2119;SDS011;1066;52.540;13.420;2022-12-07T12:54:19;5.30;;;3.83;;
2119;SDS011;1066;52.540;13.420;2022-12-07T12:56:52;7.80;;;3.93;;
2119;SDS011;1066;52.540;13.420;2022-12-07T13:01:46;11.93;;;3.87;;
2119;SDS011;1066;52.540;13.420;2022-12-07T13:04:30;5.50;;;3.77;;
2119;SDS011;1066;52.540;13.420;2022-12-07T13:07:02;8.20;;;3.37;;
2119;SDS011;1066;52.540;13.420;2022-12-07T13:09:29;7.77;;;2.90;;
2119;SDS011;1066;52.540;13.420;2022-12-07T13:12:11;3.30;;;2.83;;
2119;SDS011;1066;52.540;13.420;2022-12-07T13:14:57;4.80;;;3.60;;
2119;SDS011;1066;52.540;13.420;2022-12-07T13:27:43;7.27;;;3.30;;
2119;SDS011;1066;52.540;13.420;2022-12-07T13:30:15;7.63;;;3.43;;
2119;SDS011;1066;52.540;13.420;2022-12-07T13:32:42;3.43;;;3.10;;
2119;SDS011;1066;52.540;13.420;2022-12-07T13:37:54;6.40;;;3.07;;
2119;SDS011;1066;52.540;13.420;2022-12-07T13:40:20;4.30;;;2.97;;
2119;SDS011;1066;52.540;13.420;2022-12-07T13:42:48;2.30;;;2.10;;
2119;SDS011;1066;52.540;13.420;2022-12-07T13:48:29;3.87;;;2.70;;
2119;SDS011;1066;52.540;13.420;2022-12-07T13:51:00;4.30;;;3.10;;
2119;SDS011;1066;52.540;13.420;2022-12-07T13:53:26;6.50;;;3.10;;
2119;SDS011;1066;52.540;13.420;2022-12-07T13:55:56;3.20;;;2.30;;
2119;SDS011;1066;52.540;13.420;2022-12-07T13:58:23;4.43;;;2.63;;
2119;SDS011;1066;52.540;13.420;2022-12-07T14:00:48;6.77;;;3.13;;
2119;SDS011;1066;52.540;13.420;2022-12-07T14:05:41;6.50;;;3.10;;
2119;SDS011;1066;52.540;13.420;2022-12-07T14:10:37;5.27;;;2.40;;
2119;SDS011;1066;52.540;13.420;2022-12-07T14:13:22;3.93;;;2.60;;
2119;SDS011;1066;52.540;13.420;2022-12-07T14:15:57;4.83;;;2.37;;
2119;SDS011;1066;52.540;13.420;2022-12-07T14:21:02;4.50;;;3.13;;
2119;SDS011;1066;52.540;13.420;2022-12-07T14:23:28;6.73;;;3.27;;
2119;SDS011;1066;52.540;13.420;2022-12-07T14:25:54;3.90;;;3.33;;
2119;SDS011;1066;52.540;13.420;2022-12-07T14:28:31;7.57;;;3.00;;
2119;SDS011;1066;52.540;13.420;2022-12-07T14:30:58;4.73;;;3.10;;
2119;SDS011;1066;52.540;13.420;2022-12-07T14:33:24;5.73;;;2.83;;
2119;SDS011;1066;52.540;13.420;2022-12-07T14:35:49;3.70;;;2.73;;
2119;SDS011;1066;52.540;13.420;2022-12-07T14:38:14;6.20;;;4.00;;
2119;SDS011;1066;52.540;13.420;2022-12-07T14:40:40;6.60;;;4.20;;
2119;SDS011;1066;52.540;13.420;2022-12-07T14:43:08;4.20;;;3.40;;
2119;SDS011;1066;52.540;13.420;2022-12-07T14:45:36;8.07;;;3.57;;
2119;SDS011;1066;52.540;13.420;2022-12-07T14:48:01;3.90;;;3.20;;
2119;SDS011;1066;52.540;13.420;2022-12-07T14:50:27;5.10;;;2.83;;
2119;SDS011;1066;52.540;13.420;2022-12-07T14:52:56;6.50;;;3.10;;
2119;SDS011;1066;52.540;13.420;2022-12-07T14:55:26;4.37;;;3.00;;
2119;SDS011;1066;52.540;13.420;2022-12-07T14:57:52;6.57;;;2.77;;
2119;SDS011;1066;52.540;13.420;2022-12-07T15:00:19;5.00;;;2.50;;
2119;SDS011;1066;52.540;13.420;2022-12-07T15:02:45;11.07;;;3.37;;
2119;SDS011;1066;52.540;13.420;2022-12-07T15:05:11;3.77;;;3.27;;
2119;SDS011;1066;52.540;13.420;2022-12-07T15:07:37;6.90;;;3.63;;
2119;SDS011;1066;52.540;13.420;2022-12-07T15:10:02;4.83;;;3.40;;
2119;SDS011;1066;52.540;13.420;2022-12-07T15:12:28;5.50;;;2.70;;
2119;SDS011;1066;52.540;13.420;2022-12-07T15:14:54;3.43;;;2.43;;
2119;SDS011;1066;52.540;13.420;2022-12-07T15:17:19;6.10;;;3.17;;
2119;SDS011;1066;52.540;13.420;2022-12-07T15:19:44;6.17;;;3.63;;
2119;SDS011;1066;52.540;13.420;2022-12-07T15:22:09;83.67;;;46.20;;
2119;SDS011;1066;52.540;13.420;2022-12-07T15:24:35;9.13;;;4.40;;
2119;SDS011;1066;52.540;13.420;2022-12-07T15:27:01;3.40;;;2.50;;
2119;SDS011;1066;52.540;13.420;2022-12-07T15:29:27;6.00;;;2.93;;
2119;SDS011;1066;52.540;13.420;2022-12-07T15:31:52;4.20;;;2.80;;
2119;SDS011;1066;52.540;13.420;2022-12-07T15:34:17;4.63;;;2.80;;
2119;SDS011;1066;52.540;13.420;2022-12-07T15:36:43;5.97;;;2.93;;
2119;SDS011;1066;52.540;13.420;2022-12-07T15:39:08;5.33;;;3.40;;
2119;SDS011;1066;52.540;13.420;2022-12-07T15:41:34;14.83;;;3.73;;
2119;SDS011;1066;52.540;13.420;2022-12-07T15:44:00;7.73;;;3.60;;
2119;SDS011;1066;52.540;13.420;2022-12-07T15:46:44;6.93;;;3.50;;
2119;SDS011;1066;52.540;13.420;2022-12-07T15:49:10;7.43;;;2.90;;
2119;SDS011;1066;52.540;13.420;2022-12-07T15:51:37;8.70;;;3.60;;
2119;SDS011;1066;52.540;13.420;2022-12-07T15:54:03;5.73;;;3.53;;
2119;SDS011;1066;52.540;13.420;2022-12-07T15:56:28;3.67;;;2.77;;
2119;SDS011;1066;52.540;13.420;2022-12-07T15:58:53;5.80;;;2.77;;
2119;SDS011;1066;52.540;13.420;2022-12-07T16:01:19;3.03;;;2.77;;
2119;SDS011;1066;52.540;13.420;2022-12-07T16:03:45;5.50;;;3.10;;
2119;SDS011;1066;52.540;13.420;2022-12-07T16:06:10;5.27;;;2.50;;
2119;SDS011;1066;52.540;13.420;2022-12-07T16:08:36;5.93;;;3.53;;
2119;SDS011;1066;52.540;13.420;2022-12-07T16:11:05;5.63;;;3.33;;
2119;SDS011;1066;52.540;13.420;2022-12-07T16:13:31;5.93;;;3.00;;
2119;SDS011;1066;52.540;13.420;2022-12-07T16:15:56;4.60;;;2.93;;
2119;SDS011;1066;52.540;13.420;2022-12-07T16:18:21;5.93;;;3.00;;
2119;SDS011;1066;52.540;13.420;2022-12-07T16:20:47;8.10;;;3.20;;
2119;SDS011;1066;52.540;13.420;2022-12-07T16:23:13;7.13;;;3.33;;
2119;SDS011;1066;52.540;13.420;2022-12-07T16:25:39;9.27;;;3.73;;
2119;SDS011;1066;52.540;13.420;2022-12-07T16:28:04;4.00;;;2.80;;
2119;SDS011;1066;52.540;13.420;2022-12-07T16:30:30;4.97;;;2.30;;
2119;SDS011;1066;52.540;13.420;2022-12-07T16:32:56;8.37;;;2.63;;
2119;SDS011;1066;52.540;13.420;2022-12-07T16:35:21;4.60;;;2.80;;
2119;SDS011;1066;52.540;13.420;2022-12-07T16:37:46;5.50;;;2.83;;
2119;SDS011;1066;52.540;13.420;2022-12-07T16:40:12;3.47;;;2.33;;
2119;SDS011;1066;52.540;13.420;2022-12-07T16:42:37;7.47;;;3.30;;
2119;SDS011;1066;52.540;13.420;2022-12-07T16:45:02;10.17;;;4.83;;
2119;SDS011;1066;52.540;13.420;2022-12-07T16:47:28;6.63;;;2.50;;
2119;SDS011;1066;52.540;13.420;2022-12-07T16:49:54;3.30;;;2.40;;
2119;SDS011;1066;52.540;13.420;2022-12-07T16:52:19;5.97;;;3.03;;
2119;SDS011;1066;52.540;13.420;2022-12-07T16:54:45;10.17;;;3.73;;
2119;SDS011;1066;52.540;13.420;2022-12-07T16:57:11;8.90;;;3.77;;
2119;SDS011;1066;52.540;13.420;2022-12-07T16:59:37;5.30;;;2.87;;
2119;SDS011;1066;52.540;13.420;2022-12-07T17:02:02;5.40;;;3.37;;